Houlton, Maine
Current Conditions -  °F | °C
As of 6:44 PM on Saturday 25 Oct 2014 (Local Time) from KHUL Reporting Station
Overcast Overcast  
Wind Chill: 42°   Ceiling: 5500
Heat Index: 42°   Visibility: 10mi
Dew Point: 40°   Wind: 0mph
Humidity: 92%   Direction: NA
Pressure: 29.55"   Gusts: NA
Location:  46.13°N, 67.84°W
Report Text: KHUL 252244Z AUTO 00000KT 10SM SCT007 OVC055 06/04 A2955 RMK AO2 T00560044
Loading
Personal Weather Stations






























Interactive Weather Map New forecast layout! Learn more

10-Day Weather Forecast

Advertisements
Track Severe Weather on mobile